sensor_id;sensor_type;location;lat;lon;timestamp;P1;durP1;ratioP1;P2;durP2;ratioP2
41739;SDS011;27422;52.444;13.300;2023-07-22T00:02:22;5.97;;;4.72;;
41739;SDS011;27422;52.444;13.300;2023-07-22T00:04:48;6.75;;;4.80;;
41739;SDS011;27422;52.444;13.300;2023-07-22T00:07:14;5.90;;;4.85;;
41739;SDS011;27422;52.444;13.300;2023-07-22T00:09:40;6.22;;;4.90;;
41739;SDS011;27422;52.444;13.300;2023-07-22T00:12:07;7.00;;;5.07;;
41739;SDS011;27422;52.444;13.300;2023-07-22T00:14:33;6.70;;;4.72;;
41739;SDS011;27422;52.444;13.300;2023-07-22T00:16:59;7.35;;;5.03;;
41739;SDS011;27422;52.444;13.300;2023-07-22T00:19:25;6.65;;;4.85;;
41739;SDS011;27422;52.444;13.300;2023-07-22T00:21:50;6.68;;;4.85;;
41739;SDS011;27422;52.444;13.300;2023-07-22T00:24:17;7.68;;;5.65;;
41739;SDS011;27422;52.444;13.300;2023-07-22T00:26:46;6.47;;;5.22;;
41739;SDS011;27422;52.444;13.300;2023-07-22T00:29:12;6.82;;;5.32;;
41739;SDS011;27422;52.444;13.300;2023-07-22T00:31:37;6.22;;;4.85;;
41739;SDS011;27422;52.444;13.300;2023-07-22T00:34:03;6.15;;;4.97;;
41739;SDS011;27422;52.444;13.300;2023-07-22T00:36:28;7.88;;;5.57;;
41739;SDS011;27422;52.444;13.300;2023-07-22T00:38:54;5.95;;;4.82;;
41739;SDS011;27422;52.444;13.300;2023-07-22T00:41:19;6.85;;;5.32;;
41739;SDS011;27422;52.444;13.300;2023-07-22T00:43:45;6.25;;;5.45;;
41739;SDS011;27422;52.444;13.300;2023-07-22T00:46:10;6.85;;;5.28;;
41739;SDS011;27422;52.444;13.300;2023-07-22T00:48:35;6.47;;;4.78;;
41739;SDS011;27422;52.444;13.300;2023-07-22T00:51:01;6.68;;;5.65;;
41739;SDS011;27422;52.444;13.300;2023-07-22T00:53:29;6.95;;;4.97;;
41739;SDS011;27422;52.444;13.300;2023-07-22T00:55:54;7.43;;;5.65;;
41739;SDS011;27422;52.444;13.300;2023-07-22T00:58:20;8.23;;;4.90;;
41739;SDS011;27422;52.444;13.300;2023-07-22T01:00:46;9.40;;;5.82;;
41739;SDS011;27422;52.444;13.300;2023-07-22T01:03:11;7.60;;;5.93;;
41739;SDS011;27422;52.444;13.300;2023-07-22T01:05:37;7.35;;;5.38;;
41739;SDS011;27422;52.444;13.300;2023-07-22T01:08:04;6.50;;;5.60;;
41739;SDS011;27422;52.444;13.300;2023-07-22T01:10:29;6.43;;;5.70;;
41739;SDS011;27422;52.444;13.300;2023-07-22T01:12:58;6.80;;;5.55;;
41739;SDS011;27422;52.444;13.300;2023-07-22T01:15:24;6.88;;;5.55;;
41739;SDS011;27422;52.444;13.300;2023-07-22T01:17:49;7.13;;;5.68;;
41739;SDS011;27422;52.444;13.300;2023-07-22T01:20:15;8.40;;;6.50;;
41739;SDS011;27422;52.444;13.300;2023-07-22T01:22:41;8.18;;;6.43;;
41739;SDS011;27422;52.444;13.300;2023-07-22T01:25:08;8.48;;;6.63;;
41739;SDS011;27422;52.444;13.300;2023-07-22T01:27:34;8.55;;;6.22;;
41739;SDS011;27422;52.444;13.300;2023-07-22T01:29:59;7.32;;;5.82;;
41739;SDS011;27422;52.444;13.300;2023-07-22T01:32:27;6.95;;;5.68;;
41739;SDS011;27422;52.444;13.300;2023-07-22T01:34:52;8.95;;;6.53;;
41739;SDS011;27422;52.444;13.300;2023-07-22T01:37:18;8.88;;;6.00;;
41739;SDS011;27422;52.444;13.300;2023-07-22T01:39:44;9.07;;;6.22;;
41739;SDS011;27422;52.444;13.300;2023-07-22T01:42:09;7.70;;;6.43;;
41739;SDS011;27422;52.444;13.300;2023-07-22T01:44:35;8.50;;;6.90;;
41739;SDS011;27422;52.444;13.300;2023-07-22T01:47:03;7.80;;;6.88;;
41739;SDS011;27422;52.444;13.300;2023-07-22T01:49:29;8.35;;;6.47;;
41739;SDS011;27422;52.444;13.300;2023-07-22T01:51:54;8.98;;;6.90;;
41739;SDS011;27422;52.444;13.300;2023-07-22T01:54:19;8.05;;;6.50;;
41739;SDS011;27422;52.444;13.300;2023-07-22T01:56:45;7.70;;;6.75;;
41739;SDS011;27422;52.444;13.300;2023-07-22T01:59:11;8.57;;;6.35;;
41739;SDS011;27422;52.444;13.300;2023-07-22T02:01:36;8.43;;;6.80;;
41739;SDS011;27422;52.444;13.300;2023-07-22T02:04:01;8.95;;;7.03;;
41739;SDS011;27422;52.444;13.300;2023-07-22T02:06:27;8.43;;;6.82;;
41739;SDS011;27422;52.444;13.300;2023-07-22T02:08:53;9.95;;;6.65;;
41739;SDS011;27422;52.444;13.300;2023-07-22T02:11:19;13.48;;;7.30;;
41739;SDS011;27422;52.444;13.300;2023-07-22T02:13:45;8.10;;;6.90;;
41739;SDS011;27422;52.444;13.300;2023-07-22T02:16:10;10.32;;;7.40;;
41739;SDS011;27422;52.444;13.300;2023-07-22T02:18:38;9.52;;;7.10;;
41739;SDS011;27422;52.444;13.300;2023-07-22T02:21:04;9.15;;;6.95;;
41739;SDS011;27422;52.444;13.300;2023-07-22T02:23:29;10.05;;;7.43;;
41739;SDS011;27422;52.444;13.300;2023-07-22T02:25:54;7.68;;;6.85;;
41739;SDS011;27422;52.444;13.300;2023-07-22T02:28:20;9.55;;;7.57;;
41739;SDS011;27422;52.444;13.300;2023-07-22T02:30:53;9.13;;;7.88;;
41739;SDS011;27422;52.444;13.300;2023-07-22T02:33:19;8.88;;;7.80;;
41739;SDS011;27422;52.444;13.300;2023-07-22T02:35:46;9.45;;;7.75;;
41739;SDS011;27422;52.444;13.300;2023-07-22T02:38:12;8.10;;;7.30;;
41739;SDS011;27422;52.444;13.300;2023-07-22T02:40:39;9.77;;;7.63;;
41739;SDS011;27422;52.444;13.300;2023-07-22T02:43:05;10.00;;;7.97;;
41739;SDS011;27422;52.444;13.300;2023-07-22T02:45:32;8.33;;;7.50;;
41739;SDS011;27422;52.444;13.300;2023-07-22T02:47:57;9.25;;;7.43;;
41739;SDS011;27422;52.444;13.300;2023-07-22T02:50:23;10.48;;;7.43;;
41739;SDS011;27422;52.444;13.300;2023-07-22T02:52:48;9.35;;;7.18;;
41739;SDS011;27422;52.444;13.300;2023-07-22T02:55:15;9.07;;;7.07;;
41739;SDS011;27422;52.444;13.300;2023-07-22T02:57:44;9.00;;;7.60;;
41739;SDS011;27422;52.444;13.300;2023-07-22T03:00:11;7.93;;;6.75;;
41739;SDS011;27422;52.444;13.300;2023-07-22T03:02:38;7.57;;;6.55;;
41739;SDS011;27422;52.444;13.300;2023-07-22T03:05:04;8.52;;;6.80;;
41739;SDS011;27422;52.444;13.300;2023-07-22T03:07:33;9.15;;;6.63;;
41739;SDS011;27422;52.444;13.300;2023-07-22T03:09:59;6.93;;;6.05;;
41739;SDS011;27422;52.444;13.300;2023-07-22T03:12:24;7.82;;;6.38;;
41739;SDS011;27422;52.444;13.300;2023-07-22T03:14:50;8.02;;;6.50;;
41739;SDS011;27422;52.444;13.300;2023-07-22T03:17:17;8.95;;;6.28;;
41739;SDS011;27422;52.444;13.300;2023-07-22T03:19:43;8.65;;;6.13;;
41739;SDS011;27422;52.444;13.300;2023-07-22T03:22:08;8.77;;;6.13;;
41739;SDS011;27422;52.444;13.300;2023-07-22T03:24:35;8.80;;;6.25;;
41739;SDS011;27422;52.444;13.300;2023-07-22T03:27:00;7.85;;;5.90;;
41739;SDS011;27422;52.444;13.300;2023-07-22T03:29:26;11.02;;;5.78;;
41739;SDS011;27422;52.444;13.300;2023-07-22T03:31:51;8.30;;;5.60;;
41739;SDS011;27422;52.444;13.300;2023-07-22T03:34:16;6.53;;;5.15;;
41739;SDS011;27422;52.444;13.300;2023-07-22T03:36:42;8.13;;;5.43;;
41739;SDS011;27422;52.444;13.300;2023-07-22T03:39:08;6.82;;;5.22;;
41739;SDS011;27422;52.444;13.300;2023-07-22T03:41:33;6.90;;;5.10;;
41739;SDS011;27422;52.444;13.300;2023-07-22T03:43:59;6.40;;;5.18;;
41739;SDS011;27422;52.444;13.300;2023-07-22T03:46:24;6.07;;;4.55;;
41739;SDS011;27422;52.444;13.300;2023-07-22T03:48:49;7.22;;;4.80;;
41739;SDS011;27422;52.444;13.300;2023-07-22T03:51:15;5.40;;;4.40;;
41739;SDS011;27422;52.444;13.300;2023-07-22T03:53:40;6.00;;;4.22;;
41739;SDS011;27422;52.444;13.300;2023-07-22T03:56:05;6.28;;;4.53;;
41739;SDS011;27422;52.444;13.300;2023-07-22T03:58:31;7.88;;;4.90;;
41739;SDS011;27422;52.444;13.300;2023-07-22T04:00:56;7.28;;;4.80;;
41739;SDS011;27422;52.444;13.300;2023-07-22T04:03:22;6.45;;;3.90;;
41739;SDS011;27422;52.444;13.300;2023-07-22T04:05:56;6.75;;;4.13;;
41739;SDS011;27422;52.444;13.300;2023-07-22T04:08:22;7.15;;;4.03;;
41739;SDS011;27422;52.444;13.300;2023-07-22T04:10:51;6.82;;;4.13;;
41739;SDS011;27422;52.444;13.300;2023-07-22T04:13:17;6.18;;;4.05;;
41739;SDS011;27422;52.444;13.300;2023-07-22T04:15:42;6.38;;;3.80;;
41739;SDS011;27422;52.444;13.300;2023-07-22T04:18:08;6.75;;;3.88;;
41739;SDS011;27422;52.444;13.300;2023-07-22T04:20:33;5.32;;;4.03;;
41739;SDS011;27422;52.444;13.300;2023-07-22T04:22:59;6.28;;;4.00;;
41739;SDS011;27422;52.444;13.300;2023-07-22T04:25:24;7.18;;;4.63;;
41739;SDS011;27422;52.444;13.300;2023-07-22T04:27:50;5.50;;;3.75;;
41739;SDS011;27422;52.444;13.300;2023-07-22T04:30:15;7.35;;;3.97;;
41739;SDS011;27422;52.444;13.300;2023-07-22T04:32:46;5.80;;;3.90;;
41739;SDS011;27422;52.444;13.300;2023-07-22T04:35:13;4.97;;;3.53;;
41739;SDS011;27422;52.444;13.300;2023-07-22T04:37:38;6.80;;;4.15;;
41739;SDS011;27422;52.444;13.300;2023-07-22T04:40:06;6.18;;;4.00;;
41739;SDS011;27422;52.444;13.300;2023-07-22T04:42:34;6.60;;;4.30;;
41739;SDS011;27422;52.444;13.300;2023-07-22T04:44:59;5.65;;;4.13;;
41739;SDS011;27422;52.444;13.300;2023-07-22T04:47:25;7.30;;;4.40;;
41739;SDS011;27422;52.444;13.300;2023-07-22T04:49:50;8.18;;;4.50;;
41739;SDS011;27422;52.444;13.300;2023-07-22T04:52:16;7.70;;;4.18;;
41739;SDS011;27422;52.444;13.300;2023-07-22T04:54:42;6.20;;;4.40;;
41739;SDS011;27422;52.444;13.300;2023-07-22T04:57:07;6.47;;;4.00;;
41739;SDS011;27422;52.444;13.300;2023-07-22T04:59:33;7.10;;;4.53;;
41739;SDS011;27422;52.444;13.300;2023-07-22T05:01:58;8.38;;;4.80;;
41739;SDS011;27422;52.444;13.300;2023-07-22T05:04:24;6.25;;;4.28;;
41739;SDS011;27422;52.444;13.300;2023-07-22T05:06:49;8.60;;;4.40;;
41739;SDS011;27422;52.444;13.300;2023-07-22T05:09:15;7.07;;;4.50;;
41739;SDS011;27422;52.444;13.300;2023-07-22T05:11:40;7.78;;;4.80;;
41739;SDS011;27422;52.444;13.300;2023-07-22T05:14:07;7.68;;;4.80;;
41739;SDS011;27422;52.444;13.300;2023-07-22T05:16:33;6.22;;;4.70;;
41739;SDS011;27422;52.444;13.300;2023-07-22T05:18:58;9.82;;;5.35;;
41739;SDS011;27422;52.444;13.300;2023-07-22T05:21:23;6.90;;;4.93;;
41739;SDS011;27422;52.444;13.300;2023-07-22T05:23:49;8.07;;;4.95;;
41739;SDS011;27422;52.444;13.300;2023-07-22T05:26:14;8.85;;;5.03;;
41739;SDS011;27422;52.444;13.300;2023-07-22T05:28:39;6.93;;;4.60;;
41739;SDS011;27422;52.444;13.300;2023-07-22T05:31:05;8.18;;;4.85;;
41739;SDS011;27422;52.444;13.300;2023-07-22T05:33:38;7.63;;;5.15;;
41739;SDS011;27422;52.444;13.300;2023-07-22T05:36:07;11.02;;;6.32;;
41739;SDS011;27422;52.444;13.300;2023-07-22T05:38:32;9.60;;;5.20;;
41739;SDS011;27422;52.444;13.300;2023-07-22T05:40:58;8.93;;;5.38;;
41739;SDS011;27422;52.444;13.300;2023-07-22T05:43:23;8.75;;;5.72;;
41739;SDS011;27422;52.444;13.300;2023-07-22T05:45:52;10.10;;;6.10;;
41739;SDS011;27422;52.444;13.300;2023-07-22T05:48:17;9.85;;;5.53;;
41739;SDS011;27422;52.444;13.300;2023-07-22T05:50:43;8.93;;;5.25;;
41739;SDS011;27422;52.444;13.300;2023-07-22T05:53:08;8.60;;;5.60;;
41739;SDS011;27422;52.444;13.300;2023-07-22T05:55:34;8.60;;;5.55;;
41739;SDS011;27422;52.444;13.300;2023-07-22T05:57:59;9.15;;;5.40;;
41739;SDS011;27422;52.444;13.300;2023-07-22T06:00:30;7.95;;;5.45;;
41739;SDS011;27422;52.444;13.300;2023-07-22T06:02:56;10.00;;;4.72;;
41739;SDS011;27422;52.444;13.300;2023-07-22T06:05:21;9.00;;;5.20;;
41739;SDS011;27422;52.444;13.300;2023-07-22T06:07:47;7.25;;;4.90;;
41739;SDS011;27422;52.444;13.300;2023-07-22T06:10:12;8.95;;;4.93;;
41739;SDS011;27422;52.444;13.300;2023-07-22T06:12:58;9.18;;;4.93;;
41739;SDS011;27422;52.444;13.300;2023-07-22T06:15:23;8.57;;;4.95;;
41739;SDS011;27422;52.444;13.300;2023-07-22T06:17:48;7.97;;;4.25;;
41739;SDS011;27422;52.444;13.300;2023-07-22T06:20:14;11.20;;;4.60;;
41739;SDS011;27422;52.444;13.300;2023-07-22T06:22:39;8.93;;;4.40;;
41739;SDS011;27422;52.444;13.300;2023-07-22T06:25:05;8.85;;;4.85;;
41739;SDS011;27422;52.444;13.300;2023-07-22T06:27:31;8.75;;;4.60;;
41739;SDS011;27422;52.444;13.300;2023-07-22T06:29:58;7.90;;;3.97;;
41739;SDS011;27422;52.444;13.300;2023-07-22T06:32:24;7.80;;;4.47;;
41739;SDS011;27422;52.444;13.300;2023-07-22T06:34:49;6.78;;;3.58;;
41739;SDS011;27422;52.444;13.300;2023-07-22T06:37:15;7.50;;;4.00;;
41739;SDS011;27422;52.444;13.300;2023-07-22T06:39:40;8.90;;;3.88;;
41739;SDS011;27422;52.444;13.300;2023-07-22T06:42:05;10.73;;;4.03;;
41739;SDS011;27422;52.444;13.300;2023-07-22T06:44:31;7.97;;;3.70;;
41739;SDS011;27422;52.444;13.300;2023-07-22T06:46:56;7.13;;;3.58;;
41739;SDS011;27422;52.444;13.300;2023-07-22T06:49:22;6.90;;;3.70;;
41739;SDS011;27422;52.444;13.300;2023-07-22T06:52:07;7.20;;;3.05;;
41739;SDS011;27422;52.444;13.300;2023-07-22T06:54:33;6.45;;;3.35;;
41739;SDS011;27422;52.444;13.300;2023-07-22T06:56:59;6.72;;;3.30;;
41739;SDS011;27422;52.444;13.300;2023-07-22T06:59:25;6.35;;;2.90;;
41739;SDS011;27422;52.444;13.300;2023-07-22T07:01:51;5.07;;;3.10;;
41739;SDS011;27422;52.444;13.300;2023-07-22T07:04:16;7.45;;;3.03;;
41739;SDS011;27422;52.444;13.300;2023-07-22T07:06:42;5.85;;;3.03;;
41739;SDS011;27422;52.444;13.300;2023-07-22T07:09:07;4.53;;;2.50;;
41739;SDS011;27422;52.444;13.300;2023-07-22T07:11:33;5.95;;;2.80;;
41739;SDS011;27422;52.444;13.300;2023-07-22T07:13:58;6.40;;;3.13;;
41739;SDS011;27422;52.444;13.300;2023-07-22T07:16:27;6.50;;;2.78;;
41739;SDS011;27422;52.444;13.300;2023-07-22T07:18:56;6.72;;;2.97;;
41739;SDS011;27422;52.444;13.300;2023-07-22T07:21:23;7.60;;;3.38;;
41739;SDS011;27422;52.444;13.300;2023-07-22T07:23:49;9.02;;;3.38;;
41739;SDS011;27422;52.444;13.300;2023-07-22T07:26:17;6.55;;;2.95;;
41739;SDS011;27422;52.444;13.300;2023-07-22T07:28:43;5.95;;;3.10;;
41739;SDS011;27422;52.444;13.300;2023-07-22T07:31:11;7.03;;;3.10;;
41739;SDS011;27422;52.444;13.300;2023-07-22T07:33:46;5.80;;;2.80;;
41739;SDS011;27422;52.444;13.300;2023-07-22T07:36:20;6.13;;;2.95;;
41739;SDS011;27422;52.444;13.300;2023-07-22T07:38:45;8.40;;;2.80;;
41739;SDS011;27422;52.444;13.300;2023-07-22T07:41:10;5.63;;;3.00;;
41739;SDS011;27422;52.444;13.300;2023-07-22T07:43:39;8.23;;;3.00;;
41739;SDS011;27422;52.444;13.300;2023-07-22T07:46:24;6.30;;;2.90;;
41739;SDS011;27422;52.444;13.300;2023-07-22T07:48:58;5.75;;;2.72;;
41739;SDS011;27422;52.444;13.300;2023-07-22T07:51:26;6.25;;;2.70;;
41739;SDS011;27422;52.444;13.300;2023-07-22T07:53:52;5.95;;;2.80;;
41739;SDS011;27422;52.444;13.300;2023-07-22T07:56:18;8.18;;;3.10;;
41739;SDS011;27422;52.444;13.300;2023-07-22T07:58:45;5.55;;;2.85;;
41739;SDS011;27422;52.444;13.300;2023-07-22T08:01:12;6.18;;;2.85;;
41739;SDS011;27422;52.444;13.300;2023-07-22T08:03:39;7.05;;;3.08;;
41739;SDS011;27422;52.444;13.300;2023-07-22T08:06:08;6.60;;;2.88;;
41739;SDS011;27422;52.444;13.300;2023-07-22T08:08:34;6.25;;;2.88;;
41739;SDS011;27422;52.444;13.300;2023-07-22T08:11:04;5.88;;;2.95;;
41739;SDS011;27422;52.444;13.300;2023-07-22T08:13:33;6.00;;;3.17;;
41739;SDS011;27422;52.444;13.300;2023-07-22T08:15:59;5.65;;;2.90;;
41739;SDS011;27422;52.444;13.300;2023-07-22T08:18:26;6.93;;;2.95;;
41739;SDS011;27422;52.444;13.300;2023-07-22T08:20:52;5.65;;;3.08;;
41739;SDS011;27422;52.444;13.300;2023-07-22T08:23:18;6.32;;;3.28;;
41739;SDS011;27422;52.444;13.300;2023-07-22T08:25:47;6.57;;;3.08;;
41739;SDS011;27422;52.444;13.300;2023-07-22T08:28:15;6.00;;;3.28;;
41739;SDS011;27422;52.444;13.300;2023-07-22T08:30:44;5.68;;;2.75;;
41739;SDS011;27422;52.444;13.300;2023-07-22T08:33:13;8.07;;;2.95;;
41739;SDS011;27422;52.444;13.300;2023-07-22T08:35:39;5.45;;;2.97;;
41739;SDS011;27422;52.444;13.300;2023-07-22T08:38:04;6.07;;;2.95;;
41739;SDS011;27422;52.444;13.300;2023-07-22T08:40:36;6.55;;;2.95;;
41739;SDS011;27422;52.444;13.300;2023-07-22T08:43:06;7.10;;;3.10;;
41739;SDS011;27422;52.444;13.300;2023-07-22T08:45:33;5.05;;;2.70;;
41739;SDS011;27422;52.444;13.300;2023-07-22T08:48:02;5.57;;;2.80;;
41739;SDS011;27422;52.444;13.300;2023-07-22T08:50:34;5.47;;;3.10;;
41739;SDS011;27422;52.444;13.300;2023-07-22T08:53:12;6.22;;;2.90;;
41739;SDS011;27422;52.444;13.300;2023-07-22T08:55:38;6.40;;;3.00;;
41739;SDS011;27422;52.444;13.300;2023-07-22T08:58:09;6.28;;;3.15;;
41739;SDS011;27422;52.444;13.300;2023-07-22T09:00:36;5.50;;;3.13;;
41739;SDS011;27422;52.444;13.300;2023-07-22T09:03:03;4.88;;;2.63;;
41739;SDS011;27422;52.444;13.300;2023-07-22T09:05:29;5.43;;;2.72;;
41739;SDS011;27422;52.444;13.300;2023-07-22T09:07:56;4.57;;;2.58;;
41739;SDS011;27422;52.444;13.300;2023-07-22T09:10:24;5.47;;;3.10;;
41739;SDS011;27422;52.444;13.300;2023-07-22T09:12:50;5.03;;;2.65;;
41739;SDS011;27422;52.444;13.300;2023-07-22T09:15:16;6.57;;;2.80;;
41739;SDS011;27422;52.444;13.300;2023-07-22T09:17:42;5.80;;;3.15;;
41739;SDS011;27422;52.444;13.300;2023-07-22T09:20:08;6.05;;;3.00;;
41739;SDS011;27422;52.444;13.300;2023-07-22T09:22:36;5.30;;;2.70;;
41739;SDS011;27422;52.444;13.300;2023-07-22T09:25:23;4.70;;;2.80;;
41739;SDS011;27422;52.444;13.300;2023-07-22T09:27:52;5.93;;;2.50;;
41739;SDS011;27422;52.444;13.300;2023-07-22T09:32:53;4.68;;;2.38;;
41739;SDS011;27422;52.444;13.300;2023-07-22T09:35:20;5.13;;;2.38;;
41739;SDS011;27422;52.444;13.300;2023-07-22T09:37:46;5.75;;;2.67;;
41739;SDS011;27422;52.444;13.300;2023-07-22T09:40:22;4.80;;;2.25;;
41739;SDS011;27422;52.444;13.300;2023-07-22T09:42:52;3.55;;;2.05;;
41739;SDS011;27422;52.444;13.300;2023-07-22T09:45:19;4.35;;;2.28;;
41739;SDS011;27422;52.444;13.300;2023-07-22T09:47:48;5.70;;;2.40;;
41739;SDS011;27422;52.444;13.300;2023-07-22T09:50:21;3.70;;;2.10;;
41739;SDS011;27422;52.444;13.300;2023-07-22T09:52:48;4.95;;;2.10;;
41739;SDS011;27422;52.444;13.300;2023-07-22T09:55:15;6.20;;;2.13;;
41739;SDS011;27422;52.444;13.300;2023-07-22T09:57:44;5.10;;;2.30;;
41739;SDS011;27422;52.444;13.300;2023-07-22T10:00:17;6.20;;;2.15;;
41739;SDS011;27422;52.444;13.300;2023-07-22T10:02:46;7.15;;;3.03;;
41739;SDS011;27422;52.444;13.300;2023-07-22T10:05:18;4.85;;;2.20;;
41739;SDS011;27422;52.444;13.300;2023-07-22T10:10:41;5.47;;;2.25;;
41739;SDS011;27422;52.444;13.300;2023-07-22T10:13:05;4.55;;;2.20;;
41739;SDS011;27422;52.444;13.300;2023-07-22T10:15:32;4.72;;;2.65;;
41739;SDS011;27422;52.444;13.300;2023-07-22T10:18:01;5.90;;;2.50;;
41739;SDS011;27422;52.444;13.300;2023-07-22T10:20:28;7.07;;;2.15;;
41739;SDS011;27422;52.444;13.300;2023-07-22T10:22:53;5.93;;;2.40;;
41739;SDS011;27422;52.444;13.300;2023-07-22T10:25:20;4.57;;;2.47;;
41739;SDS011;27422;52.444;13.300;2023-07-22T10:27:48;4.38;;;2.15;;
41739;SDS011;27422;52.444;13.300;2023-07-22T10:30:17;4.90;;;2.30;;
41739;SDS011;27422;52.444;13.300;2023-07-22T10:32:45;5.13;;;2.22;;
41739;SDS011;27422;52.444;13.300;2023-07-22T10:35:12;4.75;;;2.35;;
41739;SDS011;27422;52.444;13.300;2023-07-22T10:37:44;4.50;;;2.40;;
41739;SDS011;27422;52.444;13.300;2023-07-22T10:40:18;4.13;;;2.17;;
41739;SDS011;27422;52.444;13.300;2023-07-22T10:42:51;5.18;;;2.65;;
41739;SDS011;27422;52.444;13.300;2023-07-22T10:45:28;3.95;;;2.28;;
41739;SDS011;27422;52.444;13.300;2023-07-22T10:50:50;6.32;;;2.58;;
41739;SDS011;27422;52.444;13.300;2023-07-22T11:11:53;5.47;;;2.75;;
41739;SDS011;27422;52.444;13.300;2023-07-22T11:14:46;5.65;;;2.97;;
41739;SDS011;27422;52.444;13.300;2023-07-22T11:17:12;5.75;;;2.78;;
41739;SDS011;27422;52.444;13.300;2023-07-22T11:19:37;7.43;;;3.15;;
41739;SDS011;27422;52.444;13.300;2023-07-22T11:22:03;5.10;;;3.10;;
41739;SDS011;27422;52.444;13.300;2023-07-22T11:24:32;5.80;;;3.20;;
41739;SDS011;27422;52.444;13.300;2023-07-22T11:27:03;6.00;;;2.72;;
41739;SDS011;27422;52.444;13.300;2023-07-22T11:30:04;5.25;;;2.92;;
41739;SDS011;27422;52.444;13.300;2023-07-22T11:32:32;6.35;;;3.25;;
41739;SDS011;27422;52.444;13.300;2023-07-22T11:34:59;6.32;;;3.00;;
41739;SDS011;27422;52.444;13.300;2023-07-22T11:37:24;5.10;;;2.83;;
41739;SDS011;27422;52.444;13.300;2023-07-22T11:40:04;5.90;;;3.08;;
41739;SDS011;27422;52.444;13.300;2023-07-22T11:42:34;5.78;;;3.15;;
41739;SDS011;27422;52.444;13.300;2023-07-22T11:45:03;4.63;;;2.90;;
41739;SDS011;27422;52.444;13.300;2023-07-22T11:47:29;5.72;;;2.35;;
41739;SDS011;27422;52.444;13.300;2023-07-22T11:49:58;5.60;;;2.70;;
41739;SDS011;27422;52.444;13.300;2023-07-22T11:52:24;4.40;;;2.40;;
41739;SDS011;27422;52.444;13.300;2023-07-22T11:54:49;5.80;;;2.80;;
41739;SDS011;27422;52.444;13.300;2023-07-22T11:57:15;4.20;;;2.45;;
41739;SDS011;27422;52.444;13.300;2023-07-22T11:59:56;4.93;;;2.45;;
41739;SDS011;27422;52.444;13.300;2023-07-22T12:02:23;5.30;;;2.40;;
41739;SDS011;27422;52.444;13.300;2023-07-22T12:07:23;5.28;;;2.70;;
41739;SDS011;27422;52.444;13.300;2023-07-22T12:09:49;6.18;;;3.33;;
41739;SDS011;27422;52.444;13.300;2023-07-22T12:12:16;5.60;;;3.25;;
41739;SDS011;27422;52.444;13.300;2023-07-22T12:14:42;4.93;;;2.70;;
41739;SDS011;27422;52.444;13.300;2023-07-22T12:17:08;4.28;;;2.72;;
41739;SDS011;27422;52.444;13.300;2023-07-22T12:19:50;4.30;;;2.50;;
41739;SDS011;27422;52.444;13.300;2023-07-22T12:22:16;5.65;;;3.20;;
41739;SDS011;27422;52.444;13.300;2023-07-22T12:24:42;5.88;;;3.10;;
41739;SDS011;27422;52.444;13.300;2023-07-22T12:27:10;5.93;;;2.75;;
41739;SDS011;27422;52.444;13.300;2023-07-22T12:29:36;4.65;;;2.78;;
41739;SDS011;27422;52.444;13.300;2023-07-22T12:32:19;4.07;;;2.60;;
41739;SDS011;27422;52.444;13.300;2023-07-22T12:34:45;4.30;;;2.53;;
41739;SDS011;27422;52.444;13.300;2023-07-22T12:38:15;5.60;;;3.15;;
41739;SDS011;27422;52.444;13.300;2023-07-22T12:40:33;5.60;;;3.10;;
41739;SDS011;27422;52.444;13.300;2023-07-22T12:42:59;6.55;;;2.97;;
41739;SDS011;27422;52.444;13.300;2023-07-22T12:45:25;5.43;;;3.00;;
41739;SDS011;27422;52.444;13.300;2023-07-22T12:47:50;4.50;;;2.90;;
41739;SDS011;27422;52.444;13.300;2023-07-22T12:50:21;6.28;;;3.00;;
41739;SDS011;27422;52.444;13.300;2023-07-22T12:52:50;4.20;;;2.55;;
41739;SDS011;27422;52.444;13.300;2023-07-22T12:55:15;5.53;;;2.90;;
41739;SDS011;27422;52.444;13.300;2023-07-22T12:57:41;6.28;;;3.03;;
41739;SDS011;27422;52.444;13.300;2023-07-22T13:00:07;4.40;;;2.70;;
41739;SDS011;27422;52.444;13.300;2023-07-22T13:02:37;5.05;;;2.97;;
41739;SDS011;27422;52.444;13.300;2023-07-22T13:05:03;4.70;;;3.10;;
41739;SDS011;27422;52.444;13.300;2023-07-22T13:07:34;4.57;;;2.88;;
41739;SDS011;27422;52.444;13.300;2023-07-22T13:10:06;5.50;;;3.13;;
41739;SDS011;27422;52.444;13.300;2023-07-22T13:12:51;5.70;;;3.07;;
41739;SDS011;27422;52.444;13.300;2023-07-22T13:15:17;6.03;;;3.13;;
41739;SDS011;27422;52.444;13.300;2023-07-22T13:17:45;5.10;;;3.08;;
41739;SDS011;27422;52.444;13.300;2023-07-22T13:20:16;5.07;;;3.10;;
41739;SDS011;27422;52.444;13.300;2023-07-22T13:22:53;6.75;;;3.20;;
41739;SDS011;27422;52.444;13.300;2023-07-22T13:25:22;5.35;;;3.00;;
41739;SDS011;27422;52.444;13.300;2023-07-22T13:30:58;5.82;;;3.28;;
41739;SDS011;27422;52.444;13.300;2023-07-22T13:33:35;4.00;;;2.50;;
41739;SDS011;27422;52.444;13.300;2023-07-22T13:36:00;5.15;;;2.80;;
41739;SDS011;27422;52.444;13.300;2023-07-22T13:38:26;4.78;;;3.08;;
41739;SDS011;27422;52.444;13.300;2023-07-22T13:40:58;4.30;;;2.85;;
41739;SDS011;27422;52.444;13.300;2023-07-22T13:43:35;4.03;;;2.55;;
41739;SDS011;27422;52.444;13.300;2023-07-22T13:46:00;4.05;;;2.58;;
41739;SDS011;27422;52.444;13.300;2023-07-22T13:48:29;5.32;;;3.00;;
41739;SDS011;27422;52.444;13.300;2023-07-22T13:50:55;4.93;;;2.47;;
41739;SDS011;27422;52.444;13.300;2023-07-22T13:53:23;5.50;;;2.28;;
41739;SDS011;27422;52.444;13.300;2023-07-22T13:55:52;5.80;;;2.40;;
41739;SDS011;27422;52.444;13.300;2023-07-22T13:58:20;3.80;;;2.53;;
41739;SDS011;27422;52.444;13.300;2023-07-22T14:03:41;4.38;;;2.72;;
41739;SDS011;27422;52.444;13.300;2023-07-22T14:06:06;5.25;;;2.72;;
41739;SDS011;27422;52.444;13.300;2023-07-22T14:08:33;4.50;;;2.50;;
41739;SDS011;27422;52.444;13.300;2023-07-22T14:11:01;3.75;;;2.35;;
41739;SDS011;27422;52.444;13.300;2023-07-22T14:13:29;5.85;;;2.83;;
41739;SDS011;27422;52.444;13.300;2023-07-22T14:15:55;6.72;;;2.80;;
41739;SDS011;27422;52.444;13.300;2023-07-22T14:18:20;4.60;;;2.83;;
41739;SDS011;27422;52.444;13.300;2023-07-22T14:20:46;5.22;;;2.83;;
41739;SDS011;27422;52.444;13.300;2023-07-22T14:23:15;6.13;;;2.75;;
41739;SDS011;27422;52.444;13.300;2023-07-22T14:25:40;4.53;;;2.90;;
41739;SDS011;27422;52.444;13.300;2023-07-22T14:28:06;4.78;;;2.92;;
41739;SDS011;27422;52.444;13.300;2023-07-22T14:30:40;4.90;;;2.65;;
41739;SDS011;27422;52.444;13.300;2023-07-22T14:33:06;4.70;;;3.00;;
41739;SDS011;27422;52.444;13.300;2023-07-22T14:35:31;5.40;;;2.97;;
41739;SDS011;27422;52.444;13.300;2023-07-22T14:38:09;5.38;;;3.10;;
41739;SDS011;27422;52.444;13.300;2023-07-22T14:40:44;5.32;;;2.70;;
41739;SDS011;27422;52.444;13.300;2023-07-22T14:43:11;5.85;;;2.85;;
41739;SDS011;27422;52.444;13.300;2023-07-22T14:45:40;4.20;;;2.80;;
41739;SDS011;27422;52.444;13.300;2023-07-22T14:48:05;4.43;;;2.60;;
41739;SDS011;27422;52.444;13.300;2023-07-22T14:50:40;4.78;;;2.80;;
41739;SDS011;27422;52.444;13.300;2023-07-22T14:53:06;4.13;;;2.60;;
41739;SDS011;27422;52.444;13.300;2023-07-22T14:55:31;5.28;;;3.08;;
41739;SDS011;27422;52.444;13.300;2023-07-22T14:57:56;5.07;;;2.80;;
41739;SDS011;27422;52.444;13.300;2023-07-22T15:00:22;5.72;;;2.88;;
41739;SDS011;27422;52.444;13.300;2023-07-22T15:02:48;4.57;;;2.80;;
41739;SDS011;27422;52.444;13.300;2023-07-22T15:05:13;4.95;;;2.90;;
41739;SDS011;27422;52.444;13.300;2023-07-22T15:07:41;4.60;;;2.92;;
41739;SDS011;27422;52.444;13.300;2023-07-22T15:10:06;4.75;;;2.83;;
41739;SDS011;27422;52.444;13.300;2023-07-22T15:12:35;6.15;;;3.00;;